Home   Weather   Spain   Maspalomas   Past weeks
Flag for Spain

Past Weather in Maspalomas, Canary Islands, Spain — Yesterday and Last 2 Weeks

Currently: 73 °F. Passing clouds. (Weather station: Las Palmas De Gran Canaria / Gando, Spain). See more current weather

Past Weather in Maspalomas — Graph

°F

Maspalomas Temperature Yesterday

Maximum temperature yesterday: 81 °F (at 3:00 pm)
Minimum temperature yesterday: 70 °F (at 12:30 am)
Average temperature yesterday: 74 °F

High & Low Weather Summary for the Past Weeks

 TemperatureHumidityPressure
High90 °F (Jun 9, 3:00 pm)88% (Jun 8, 6:30 am)30.24 "Hg (Jun 8, 6:30 am)
Low66 °F (Jun 3, 6:00 am)22% (Jun 9, 7:00 pm)29.92 "Hg (Jun 10, 7:00 am)
Average73 °F64%30.08 "Hg
* Reported Jun 3 12:00 am — Jun 18 12:30 am, Maspalomas. Weather by CustomWeather, © 2021

Note: Actual official high and low records may vary slightly from our data, if they occured in-between our weather recording intervals... More about our weather records

Maspalomas Weather History for the Previous 24 Hours

Scroll right to see more
 ConditionsComfort  
Time TempWeatherWind HumidityBarometerVisibility
12:30 am
Fri, Jun 18
73 °FPassing clouds.18 mph65%30.12 "HgN/A
12:00 am72 °FPassing clouds.15 mph69%30.12 "HgN/A
11:30 pm
Thu, Jun 17
72 °FPassing clouds.17 mph73%30.12 "HgN/A
11:00 pm72 °FPassing clouds.18 mph73%30.12 "HgN/A
10:30 pm72 °FPassing clouds.13 mph69%30.09 "HgN/A
10:00 pm73 °FPassing clouds.16 mph65%30.09 "HgN/A
9:30 pm73 °FPassing clouds.16 mph61%30.09 "HgN/A
9:00 pm73 °FPassing clouds.18 mph65%30.09 "HgN/A
8:30 pm73 °FPassing clouds.21 mph65%30.07 "HgN/A
8:00 pm75 °FPassing clouds.24 mph57%30.07 "HgN/A
7:30 pm75 °FPassing clouds.26 mph61%30.07 "HgN/A
7:00 pm77 °FPassing clouds.26 mph57%30.07 "HgN/A
6:30 pm77 °FPassing clouds.25 mph54%30.07 "HgN/A
6:00 pm79 °FPassing clouds.28 mph51%30.07 "HgN/A
5:30 pm81 °FPassing clouds.26 mph48%30.07 "HgN/A
5:00 pm79 °FPassing clouds.29 mph51%30.07 "HgN/A
4:30 pm79 °FPassing clouds.29 mph54%30.07 "HgN/A
4:00 pm79 °FPassing clouds.30 mph51%30.07 "HgN/A
3:30 pm79 °FPassing clouds.30 mph51%30.07 "HgN/A
3:00 pm81 °FPassing clouds.30 mph48%30.07 "HgN/A
2:30 pm79 °FPassing clouds.28 mph54%30.09 "HgN/A
2:00 pm79 °FScattered clouds.26 mph54%30.09 "HgN/A
1:30 pm79 °FScattered clouds.25 mph54%30.09 "HgN/A
1:00 pm77 °FScattered clouds.25 mph54%30.09 "HgN/A
12:30 pm77 °FScattered clouds.25 mph54%30.09 "HgN/A
12:00 pm77 °FScattered clouds.23 mph54%30.09 "HgN/A
11:30 am77 °FScattered clouds.22 mph54%30.09 "HgN/A
11:00 am77 °FScattered clouds.21 mph57%30.09 "HgN/A
10:30 am73 °FScattered clouds.20 mph65%30.09 "HgN/A
10:00 am75 °FScattered clouds.23 mph57%30.09 "HgN/A
9:30 am73 °FPassing clouds.22 mph65%30.09 "HgN/A
9:00 am73 °FPassing clouds.17 mph65%30.09 "HgN/A
8:30 am73 °FPassing clouds.15 mph61%30.09 "HgN/A
8:00 am72 °FPassing clouds.17 mph65%30.07 "HgN/A
7:30 am70 °FPassing clouds.13 mph73%30.07 "HgN/A
7:00 am70 °FPassing clouds.13 mph73%30.07 "HgN/A
6:30 am70 °FPassing clouds.16 mph73%30.07 "HgN/A
6:00 am70 °FPassing clouds.13 mph73%30.07 "HgN/A
5:30 am70 °FPassing clouds.13 mph73%30.07 "HgN/A
5:00 am70 °FPassing clouds.14 mph73%30.07 "HgN/A
4:30 am70 °FPassing clouds.16 mph73%30.07 "HgN/A
4:00 am70 °FPassing clouds.15 mph73%30.07 "HgN/A
3:30 am70 °FPassing clouds.16 mph78%30.07 "HgN/A
3:00 am70 °FPassing clouds.15 mph78%30.07 "HgN/A
2:30 am70 °FPassing clouds.15 mph78%30.09 "HgN/A
2:00 am70 °FPassing clouds.20 mph78%30.09 "HgN/A
1:30 am70 °FPassing clouds.16 mph83%30.09 "HgN/A
1:00 am70 °FPassing clouds.15 mph78%30.09 "HgN/A
Weather by CustomWeather, © 2021

See weather overview